createdAt,value
2019-02-24T00:01:36.829Z,-2.20
2019-02-24T00:04:42.462Z,-2.16
2019-02-24T00:07:47.665Z,-1.89
2019-02-24T00:10:52.866Z,-1.93
2019-02-24T00:13:58.015Z,-2.19
2019-02-24T00:17:03.407Z,-2.30
2019-02-24T00:20:08.575Z,-2.32
2019-02-24T00:23:13.745Z,-2.06
2019-02-24T00:26:19.023Z,-2.32
2019-02-24T00:29:24.288Z,-2.35
2019-02-24T00:32:29.555Z,-2.32
2019-02-24T00:35:34.757Z,-2.32
2019-02-24T00:38:39.967Z,-2.28
2019-02-24T00:41:45.374Z,-2.34
2019-02-24T00:44:50.553Z,-2.30
2019-02-24T00:47:55.790Z,-2.24
2019-02-24T00:51:02.143Z,-2.09
2019-02-24T00:54:07.387Z,-2.35
2019-02-24T00:57:12.711Z,-2.26
2019-02-24T01:00:17.928Z,-2.09
2019-02-24T01:03:23.140Z,-2.20
2019-02-24T01:06:28.341Z,-2.24
2019-02-24T01:09:33.510Z,-2.23
2019-02-24T01:12:38.565Z,-2.30
2019-02-24T01:15:43.818Z,-2.33
2019-02-24T01:18:49.031Z,-2.14
2019-02-24T01:21:54.178Z,-2.30
2019-02-24T01:24:59.331Z,-2.45
2019-02-24T01:28:04.481Z,-2.46
2019-02-24T01:31:09.613Z,-2.59
2019-02-24T01:34:14.761Z,-2.51
2019-02-24T01:37:19.937Z,-2.35
2019-02-24T01:40:25.270Z,-2.52
2019-02-24T01:43:31.363Z,-2.60
2019-02-24T01:46:36.515Z,-2.69
2019-02-24T01:49:41.608Z,-2.77
2019-02-24T01:52:46.726Z,-2.80
2019-02-24T01:55:51.879Z,-2.85
2019-02-24T01:58:57.121Z,-2.89
2019-02-24T02:02:02.232Z,-2.91
2019-02-24T02:05:07.550Z,-2.95
2019-02-24T02:08:12.709Z,-3.09
2019-02-24T02:11:18.364Z,-3.17
2019-02-24T02:14:23.550Z,-3.18
2019-02-24T02:17:28.887Z,-2.92
2019-02-24T02:20:34.049Z,-2.98
2019-02-24T02:23:39.159Z,-2.95
2019-02-24T02:26:44.368Z,-3.01
2019-02-24T02:29:49.556Z,-3.13
2019-02-24T02:32:54.758Z,-3.17
2019-02-24T02:35:59.986Z,-3.13
2019-02-24T02:39:05.787Z,-2.93
2019-02-24T02:42:11.613Z,-3.15
2019-02-24T02:45:16.830Z,-3.20
2019-02-24T02:48:22.025Z,-3.07
2019-02-24T02:51:27.252Z,-2.93
2019-02-24T02:54:32.421Z,-2.98
2019-02-24T02:57:37.506Z,-2.98
2019-02-24T03:00:42.663Z,-2.86
2019-02-24T03:03:47.878Z,-2.93
2019-02-24T03:07:01.634Z,-3.07
2019-02-24T03:10:06.835Z,-3.21
2019-02-24T03:13:11.976Z,-3.21
2019-02-24T03:16:23.035Z,-3.06
2019-02-24T03:19:29.244Z,-2.92
2019-02-24T03:22:34.375Z,-2.98
2019-02-24T03:25:39.462Z,-3.05
2019-02-24T03:28:44.792Z,-2.99
2019-02-24T03:31:49.981Z,-3.08
2019-02-24T03:34:55.172Z,-3.25
2019-02-24T03:38:00.332Z,-3.23
2019-02-24T03:41:05.566Z,-3.02
2019-02-24T03:44:10.747Z,-2.84
2019-02-24T03:47:15.992Z,-2.84
2019-02-24T03:50:21.086Z,-2.82
2019-02-24T03:53:26.426Z,-2.97
2019-02-24T03:56:31.594Z,-2.96
2019-02-24T03:59:36.698Z,-3.03
2019-02-24T04:02:41.892Z,-3.15
2019-02-24T04:05:47.035Z,-3.08
2019-02-24T04:08:52.194Z,-3.22
2019-02-24T04:11:57.362Z,-3.22
2019-02-24T04:15:02.474Z,-3.25
2019-02-24T04:18:07.695Z,-3.36
2019-02-24T04:21:12.866Z,-3.46
2019-02-24T04:24:17.995Z,-3.44
2019-02-24T04:27:23.140Z,-3.21
2019-02-24T04:30:29.352Z,-3.09
2019-02-24T04:33:34.565Z,-3.12
2019-02-24T04:36:39.748Z,-3.07
2019-02-24T04:39:44.912Z,-2.95
2019-02-24T04:42:50.162Z,-2.99
2019-02-24T04:45:55.232Z,-3.13
2019-02-24T04:49:00.447Z,-3.07
2019-02-24T04:52:05.576Z,-3.03
2019-02-24T04:55:10.720Z,-3.09
2019-02-24T04:58:15.896Z,-3.14
2019-02-24T05:01:21.115Z,-3.07
2019-02-24T05:04:26.317Z,-3.06
2019-02-24T05:07:31.453Z,-3.05
2019-02-24T05:10:36.674Z,-3.06
2019-02-24T05:13:41.778Z,-3.01
2019-02-24T05:16:46.953Z,-2.96
2019-02-24T05:19:52.015Z,-3.01
2019-02-24T05:22:57.281Z,-3.05
2019-02-24T05:26:02.555Z,-3.12
2019-02-24T05:29:07.661Z,-3.09
2019-02-24T05:32:12.795Z,-2.99
2019-02-24T05:35:18.156Z,-3.15
2019-02-24T05:38:23.426Z,-3.13
2019-02-24T05:41:28.665Z,-3.12
2019-02-24T05:44:33.796Z,-3.25
2019-02-24T05:47:38.932Z,-3.43
2019-02-24T05:50:44.072Z,-3.68
2019-02-24T05:53:49.285Z,-3.76
2019-02-24T05:56:54.362Z,-3.82
2019-02-24T05:59:59.545Z,-3.68
2019-02-24T06:03:04.667Z,-3.85
2019-02-24T06:06:09.866Z,-3.73
2019-02-24T06:09:15.023Z,-3.92
2019-02-24T06:12:20.299Z,-3.74
2019-02-24T06:15:25.626Z,-3.91
2019-02-24T06:18:30.794Z,-3.83
2019-02-24T06:21:36.026Z,-3.84
2019-02-24T06:24:41.253Z,-3.81
2019-02-24T06:27:46.342Z,-3.68
2019-02-24T06:30:51.495Z,-3.65
2019-02-24T06:33:56.755Z,-3.65
2019-02-24T06:37:01.905Z,-3.63
2019-02-24T06:40:08.562Z,-3.54
2019-02-24T06:43:13.778Z,-3.37
2019-02-24T06:46:18.958Z,-3.26
2019-02-24T06:49:24.128Z,-3.15
2019-02-24T06:52:30.318Z,-2.86
2019-02-24T06:55:35.498Z,-2.73
2019-02-24T06:58:40.620Z,-2.46
2019-02-24T07:01:45.762Z,-2.30
2019-02-24T07:04:51.030Z,-2.16
2019-02-24T07:07:56.284Z,-2.03
2019-02-24T07:11:01.519Z,-1.97
2019-02-24T07:14:06.705Z,-1.82
2019-02-24T07:17:11.847Z,-1.50
2019-02-24T07:20:17.060Z,-1.30
2019-02-24T07:23:22.214Z,-1.27
2019-02-24T07:26:27.431Z,-0.80
2019-02-24T07:29:32.546Z,-1.05
2019-02-24T07:32:37.770Z,-1.15
2019-02-24T07:35:42.895Z,-0.78
2019-02-24T07:38:48.191Z,-0.68
2019-02-24T07:41:53.319Z,-0.52
2019-02-24T07:44:58.495Z,-0.09
2019-02-24T07:48:03.604Z,-0.10
2019-02-24T07:51:08.837Z,-0.01
2019-02-24T07:54:13.941Z,0.11
2019-02-24T07:57:19.090Z,0.57
2019-02-24T08:00:31.956Z,0.28
2019-02-24T08:03:31.099Z,0.61
2019-02-24T08:06:36.259Z,0.82
2019-02-24T08:09:41.506Z,0.86
2019-02-24T08:12:46.663Z,0.82
2019-02-24T08:15:51.897Z,1.00
2019-02-24T08:18:57.100Z,1.10
2019-02-24T08:22:03.174Z,0.98
2019-02-24T08:25:09.374Z,1.15
2019-02-24T08:28:14.561Z,1.52
2019-02-24T08:31:19.725Z,2.26
2019-02-24T08:34:24.869Z,2.63
2019-02-24T08:37:30.019Z,2.58
2019-02-24T08:40:35.209Z,2.92
2019-02-24T08:43:40.446Z,3.32
2019-02-24T08:46:45.773Z,3.28
2019-02-24T08:49:50.851Z,3.59
2019-02-24T08:52:57.106Z,3.63
2019-02-24T08:56:02.440Z,3.52
2019-02-24T08:59:07.688Z,3.76
2019-02-24T09:02:12.835Z,3.97
2019-02-24T09:05:18.042Z,4.19
2019-02-24T09:08:23.157Z,4.25
2019-02-24T09:11:29.253Z,4.22
2019-02-24T09:14:34.386Z,4.30
2019-02-24T09:17:39.503Z,4.69
2019-02-24T09:20:44.725Z,4.47
2019-02-24T09:23:50.105Z,4.79
2019-02-24T09:26:55.231Z,4.58
2019-02-24T09:30:00.398Z,4.86
2019-02-24T09:33:05.489Z,4.52
2019-02-24T09:36:10.580Z,4.88
2019-02-24T09:39:18.486Z,4.79
2019-02-24T09:42:23.607Z,4.89
2019-02-24T09:45:28.760Z,5.22
2019-02-24T09:48:34.032Z,5.36
2019-02-24T09:51:39.202Z,5.39
2019-02-24T09:54:44.430Z,5.29
2019-02-24T09:57:50.571Z,4.97
2019-02-24T10:00:55.845Z,5.67
2019-02-24T10:04:00.935Z,5.79
2019-02-24T10:07:06.062Z,5.97
2019-02-24T10:10:11.465Z,6.31
2019-02-24T10:13:16.643Z,6.27
2019-02-24T10:16:21.773Z,6.28
2019-02-24T10:19:26.919Z,6.39
2019-02-24T10:22:32.016Z,6.34
2019-02-24T10:25:37.213Z,6.43
2019-02-24T10:28:42.479Z,6.48
2019-02-24T10:31:47.678Z,6.82
2019-02-24T10:34:52.901Z,6.81
2019-02-24T10:37:58.249Z,7.32
2019-02-24T10:41:03.436Z,7.37
2019-02-24T10:44:09.693Z,7.50
2019-02-24T10:47:15.038Z,7.72
2019-02-24T10:50:21.484Z,7.20
2019-02-24T10:53:28.157Z,7.72
2019-02-24T10:56:33.919Z,8.25
2019-02-24T10:59:39.070Z,7.82
2019-02-24T11:02:44.207Z,7.74
2019-02-24T11:05:49.448Z,8.17
2019-02-24T11:08:54.633Z,8.45
2019-02-24T11:11:59.733Z,8.36
2019-02-24T11:15:05.103Z,8.60
2019-02-24T11:18:10.712Z,8.43
2019-02-24T11:21:16.077Z,8.35
2019-02-24T11:24:21.204Z,8.24
2019-02-24T11:27:26.341Z,8.30
2019-02-24T11:30:31.501Z,8.41
2019-02-24T11:33:36.869Z,8.35
2019-02-24T11:36:42.004Z,9.07
2019-02-24T11:39:47.213Z,8.93
2019-02-24T11:42:52.430Z,9.06
2019-02-24T11:45:57.739Z,8.73
2019-02-24T11:49:02.906Z,9.03
2019-02-24T11:52:08.269Z,8.97
2019-02-24T11:55:13.703Z,9.15
2019-02-24T11:58:18.870Z,9.12
2019-02-24T12:01:24.047Z,9.20
2019-02-24T12:04:29.197Z,8.89
2019-02-24T12:07:34.487Z,9.34
2019-02-24T12:10:40.082Z,9.27
2019-02-24T12:13:45.152Z,9.60
2019-02-24T12:16:50.355Z,9.63
2019-02-24T12:19:55.542Z,9.62
2019-02-24T12:23:00.785Z,9.40
2019-02-24T12:26:05.971Z,9.49
2019-02-24T12:29:11.407Z,9.52
2019-02-24T12:32:16.575Z,9.86
2019-02-24T12:35:21.716Z,9.80
2019-02-24T12:38:26.910Z,9.63
2019-02-24T12:41:32.051Z,9.76
2019-02-24T12:44:37.232Z,9.98
2019-02-24T12:47:42.320Z,10.17
2019-02-24T12:50:47.500Z,10.08
2019-02-24T12:53:53.796Z,10.09
2019-02-24T12:56:58.955Z,10.28
2019-02-24T13:00:04.308Z,10.28
2019-02-24T13:03:09.653Z,10.64
2019-02-24T13:06:14.834Z,10.74
2019-02-24T13:09:23.987Z,10.69
2019-02-24T13:12:29.225Z,10.69
2019-02-24T13:15:34.371Z,10.93
2019-02-24T13:18:39.644Z,10.78
2019-02-24T13:21:46.430Z,11.03
2019-02-24T13:24:51.807Z,11.06
2019-02-24T13:27:56.959Z,11.03
2019-02-24T13:31:02.346Z,11.10
2019-02-24T13:34:07.600Z,11.25
2019-02-24T13:37:12.947Z,11.13
2019-02-24T13:40:18.103Z,11.27
2019-02-24T13:43:23.268Z,11.52
2019-02-24T13:46:28.564Z,11.25
2019-02-24T13:49:33.892Z,11.22
2019-02-24T13:52:39.036Z,10.78
2019-02-24T13:55:44.212Z,11.24
2019-02-24T13:58:49.352Z,10.82
2019-02-24T14:01:54.521Z,10.74
2019-02-24T14:04:59.666Z,11.12
2019-02-24T14:08:04.871Z,11.61
2019-02-24T14:11:10.036Z,11.70
2019-02-24T14:14:15.262Z,11.69
2019-02-24T14:17:20.416Z,11.74
2019-02-24T14:20:25.753Z,11.89
2019-02-24T14:23:30.961Z,12.00
2019-02-24T14:26:36.133Z,11.80
2019-02-24T14:29:41.285Z,11.75
2019-02-24T14:32:46.403Z,11.84
2019-02-24T14:35:51.708Z,11.95
2019-02-24T14:38:56.891Z,12.04
2019-02-24T14:42:01.983Z,11.86
2019-02-24T14:45:11.158Z,11.77
2019-02-24T14:48:17.513Z,11.87
2019-02-24T14:51:22.642Z,11.69
2019-02-24T14:54:27.697Z,11.78
2019-02-24T14:57:32.825Z,11.41
2019-02-24T15:00:38.058Z,11.60
2019-02-24T15:03:43.340Z,11.19
2019-02-24T15:06:48.522Z,11.05
2019-02-24T15:09:54.497Z,10.98
2019-02-24T15:12:59.612Z,10.80
2019-02-24T15:16:04.825Z,10.53
2019-02-24T15:19:09.925Z,10.42
2019-02-24T15:22:15.061Z,10.36
2019-02-24T15:25:20.419Z,10.14
2019-02-24T15:28:25.583Z,9.97
2019-02-24T15:31:30.863Z,9.65
2019-02-24T15:34:36.118Z,9.50
2019-02-24T15:37:41.376Z,9.43
2019-02-24T15:40:46.482Z,9.17
2019-02-24T15:43:51.734Z,9.09
2019-02-24T15:46:56.885Z,9.01
2019-02-24T15:50:02.505Z,8.65
2019-02-24T15:53:07.728Z,8.50
2019-02-24T15:56:13.132Z,8.75
2019-02-24T15:59:18.510Z,8.89
2019-02-24T16:02:23.662Z,8.54
2019-02-24T16:05:28.849Z,8.24
2019-02-24T16:08:34.900Z,8.08
2019-02-24T16:11:40.094Z,8.03
2019-02-24T16:14:45.224Z,7.80
2019-02-24T16:17:50.532Z,7.56
2019-02-24T16:20:55.706Z,7.58
2019-02-24T16:24:00.968Z,7.47
2019-02-24T16:27:06.251Z,7.37
2019-02-24T16:30:12.099Z,7.13
2019-02-24T16:33:17.204Z,7.17
2019-02-24T16:36:22.544Z,7.05
2019-02-24T16:39:27.700Z,6.96
2019-02-24T16:42:32.860Z,6.88
2019-02-24T16:45:38.099Z,6.57
2019-02-24T16:48:43.400Z,6.22
2019-02-24T16:51:48.562Z,6.08
2019-02-24T16:54:53.734Z,5.96
2019-02-24T16:57:58.950Z,5.78
2019-02-24T17:01:04.219Z,5.73
2019-02-24T17:04:09.504Z,5.44
2019-02-24T17:07:14.649Z,5.63
2019-02-24T17:10:20.004Z,5.55
2019-02-24T17:13:25.249Z,5.31
2019-02-24T17:16:30.389Z,5.02
2019-02-24T17:19:35.560Z,4.77
2019-02-24T17:22:40.695Z,4.59
2019-02-24T17:25:45.885Z,4.39
2019-02-24T17:28:52.197Z,4.24
2019-02-24T17:31:57.387Z,4.60
2019-02-24T17:35:02.546Z,4.58
2019-02-24T17:38:07.920Z,4.33
2019-02-24T17:41:13.023Z,4.41
2019-02-24T17:44:19.190Z,4.18
2019-02-24T17:47:24.394Z,3.87
2019-02-24T17:50:29.574Z,3.61
2019-02-24T17:53:34.884Z,3.46
2019-02-24T17:56:40.148Z,3.64
2019-02-24T17:59:45.466Z,3.52
2019-02-24T18:02:50.634Z,3.42
2019-02-24T18:05:57.011Z,3.29
2019-02-24T18:09:02.189Z,3.04
2019-02-24T18:12:08.964Z,2.93
2019-02-24T18:15:15.697Z,2.87
2019-02-24T18:18:21.060Z,2.79
2019-02-24T18:21:27.205Z,2.75
2019-02-24T18:24:32.397Z,2.83
2019-02-24T18:27:37.607Z,2.76
2019-02-24T18:30:44.413Z,2.72
2019-02-24T18:33:49.635Z,2.94
2019-02-24T18:36:54.831Z,2.78
2019-02-24T18:40:00.190Z,2.54
2019-02-24T18:43:05.415Z,2.41
2019-02-24T18:46:10.667Z,2.40
2019-02-24T18:49:15.837Z,2.19
2019-02-24T18:52:21.478Z,2.13
2019-02-24T18:55:36.554Z,2.11
2019-02-24T18:58:41.809Z,2.23
2019-02-24T19:01:47.838Z,2.14
2019-02-24T19:04:53.775Z,1.96
2019-02-24T19:07:59.890Z,1.90
2019-02-24T19:11:06.130Z,1.70
2019-02-24T19:14:11.388Z,1.60
2019-02-24T19:17:16.597Z,1.62
2019-02-24T19:20:21.831Z,1.72
2019-02-24T19:23:27.052Z,1.56
2019-02-24T19:26:32.288Z,1.51
2019-02-24T19:29:37.453Z,1.51
2019-02-24T19:32:42.686Z,1.62
2019-02-24T19:35:47.979Z,1.49
2019-02-24T19:38:55.019Z,1.46
2019-02-24T19:42:00.248Z,1.53
2019-02-24T19:45:05.781Z,1.24
2019-02-24T19:48:11.196Z,1.03
2019-02-24T19:51:16.399Z,0.94
2019-02-24T19:54:21.549Z,0.96
2019-02-24T19:57:26.839Z,1.31
2019-02-24T20:00:32.143Z,1.17
2019-02-24T20:03:37.524Z,1.13
2019-02-24T20:06:42.825Z,0.98
2019-02-24T20:09:47.992Z,0.88
2019-02-24T20:12:53.160Z,0.96
2019-02-24T20:15:58.666Z,0.78
2019-02-24T20:19:03.868Z,0.58
2019-02-24T20:22:09.060Z,0.46
2019-02-24T20:25:14.299Z,0.43
2019-02-24T20:28:19.429Z,0.68
2019-02-24T20:31:24.624Z,0.59
2019-02-24T20:34:29.793Z,0.41
2019-02-24T20:37:35.090Z,0.24
2019-02-24T20:40:40.402Z,0.08
2019-02-24T20:43:45.573Z,0.15
2019-02-24T20:46:50.981Z,0.23
2019-02-24T20:49:56.180Z,0.01
2019-02-24T20:53:01.404Z,-0.02
2019-02-24T20:56:06.550Z,0.06
2019-02-24T20:59:11.763Z,-0.07
2019-02-24T21:02:16.996Z,0.11
2019-02-24T21:05:22.283Z,0.25
2019-02-24T21:08:27.397Z,0.39
2019-02-24T21:11:32.595Z,0.40
2019-02-24T21:14:37.769Z,0.22
2019-02-24T21:17:43.027Z,0.05
2019-02-24T21:20:48.200Z,-0.01
2019-02-24T21:23:53.471Z,-0.21
2019-02-24T21:26:58.767Z,-0.37
2019-02-24T21:30:04.441Z,-0.41
2019-02-24T21:33:09.909Z,-0.47
2019-02-24T21:36:15.369Z,-0.59
2019-02-24T21:39:20.527Z,-0.73
2019-02-24T21:42:25.829Z,-0.82
2019-02-24T21:45:31.000Z,-0.94
2019-02-24T21:48:36.255Z,-0.98
2019-02-24T21:51:42.505Z,-0.98
2019-02-24T21:54:47.758Z,-0.86
2019-02-24T21:57:52.896Z,-0.94
2019-02-24T22:00:58.169Z,-0.98
2019-02-24T22:04:03.333Z,-1.02
2019-02-24T22:07:09.462Z,-1.05
2019-02-24T22:10:15.303Z,-0.96
2019-02-24T22:13:20.537Z,-1.06
2019-02-24T22:16:25.826Z,-1.21
2019-02-24T22:19:31.237Z,-1.29
2019-02-24T22:22:36.445Z,-1.26
2019-02-24T22:25:41.611Z,-1.26
2019-02-24T22:28:46.751Z,-1.17
2019-02-24T22:31:52.247Z,-1.17
2019-02-24T22:34:57.377Z,-1.40
2019-02-24T22:38:02.547Z,-1.46
2019-02-24T22:41:07.773Z,-1.42
2019-02-24T22:44:12.936Z,-1.46
2019-02-24T22:47:18.060Z,-1.48
2019-02-24T22:50:23.296Z,-1.50
2019-02-24T22:53:28.502Z,-1.55
2019-02-24T22:56:33.635Z,-1.75
2019-02-24T22:59:38.827Z,-1.66
2019-02-24T23:02:44.011Z,-1.63
2019-02-24T23:05:49.236Z,-1.51
2019-02-24T23:08:54.764Z,-1.61
2019-02-24T23:12:00.119Z,-1.63
2019-02-24T23:15:05.575Z,-1.82
2019-02-24T23:18:10.729Z,-1.86
2019-02-24T23:21:15.905Z,-1.68
2019-02-24T23:24:21.150Z,-1.76
2019-02-24T23:27:26.351Z,-1.89
2019-02-24T23:30:31.459Z,-1.83
2019-02-24T23:33:36.652Z,-1.74
2019-02-24T23:36:41.767Z,-1.80
2019-02-24T23:39:46.963Z,-1.94
2019-02-24T23:42:52.129Z,-1.95
2019-02-24T23:45:57.312Z,-1.83
2019-02-24T23:49:02.468Z,-1.90
2019-02-24T23:52:07.860Z,-2.02
2019-02-24T23:55:13.058Z,-1.94
2019-02-24T23:58:18.320Z,-1.89
